»·PEaware :: N681FD KAJO-KVCV

N681FD :: KAJO-KVCV

FLIGHT INFORMATION

Flight Status: Arrived
Operator: Privately registered:
United States
More flights under this callsign
Pilot: Anonymous 29304 (29304)
Aircraft: BELL TEXTRON MODEL 412
(B412)
More flights by this aircraft type
Origin: KAJO Corona Mun
United States
Destination: KVCV Socal Logistics
United States
More flights between these airports :: More routes between these airports
Route: PDZ V442 APLES
File this flight plan on PilotEdge
Remarks:
Altitude:
(Current/Filed)
9,000ft
Speed:
(Current/Filed)
110kts
Departed: 13-Oct-20 11:00 AM
Arrived: 13-Oct-20 01:03 PM
Distance/Time
Traveled:
43nm/2:02
Distance/Time
To Go:
Arrived

Flight Plot

Page will automatically refresh every two minutes.


Map Options




Map Legend


Flown Route
Filed Route
Departure Airport
Arrival Airport
Navaid (VOR, NDB)
Fix

Horizontal Profiles

Position Reports

Time Latitude Longitude Heading Altitude Ground
Speed
13-Oct-20 10:38 33.897102 -117.607164 1 539ft 0kts
13-Oct-20 10:39 33.897102 -117.607164 1 539ft 0kts
13-Oct-20 10:40 33.897102 -117.607164 1 539ft 0kts
13-Oct-20 10:41 33.897102 -117.607164 1 539ft 0kts
13-Oct-20 10:42 33.897102 -117.607164 1 539ft 0kts
13-Oct-20 10:43 33.897102 -117.607164 1 539ft 0kts
13-Oct-20 10:44 33.897102 -117.607164 1 539ft 0kts
13-Oct-20 10:45 33.897102 -117.607164 1 539ft 0kts
13-Oct-20 10:46 33.897102 -117.607164 1 539ft 0kts
13-Oct-20 10:47 33.897102 -117.607164 1 539ft 0kts
13-Oct-20 10:48 33.896977 -117.607013 181 539ft 0kts
13-Oct-20 10:49 33.896977 -117.607013 181 539ft 0kts
13-Oct-20 10:50 33.896977 -117.607013 181 539ft 0kts
13-Oct-20 10:51 33.896977 -117.607013 181 539ft 0kts
13-Oct-20 10:52 33.896977 -117.607013 181 539ft 0kts
13-Oct-20 10:53 33.896977 -117.607013 181 539ft 0kts
13-Oct-20 10:54 33.897012 -117.606782 80 542ft 3kts
13-Oct-20 10:55 33.897208 -117.604428 99 546ft 4kts
13-Oct-20 10:56 33.897203 -117.603763 5 539ft 0kts
13-Oct-20 10:57 33.897203 -117.603763 5 539ft 0kts
13-Oct-20 10:58 33.897646 -117.604164 274 541ft 3kts
13-Oct-20 10:59 33.897676 -117.614798 270 1129ft 48kts
13-Oct-20 11:00 33.902069 -117.609213 97 1983ft 55kts
13-Oct-20 11:01 33.894781 -117.589867 83 2858ft 68kts
13-Oct-20 11:02 33.896545 -117.566938 60 3721ft 78kts
13-Oct-20 11:03 33.908325 -117.544257 44 4572ft 80kts
13-Oct-20 11:04 33.921290 -117.525246 63 5388ft 70kts
13-Oct-20 11:05 33.934447 -117.509149 42 5942ft 68kts
13-Oct-20 11:06 33.957427 -117.497050 341 5976ft 125kts
13-Oct-20 11:07 33.968461 -117.528762 218 6096ft 109kts
13-Oct-20 11:08 33.942020 -117.529418 173 6203ft 88kts
13-Oct-20 11:09 33.919105 -117.526344 218 6118ft 76kts
13-Oct-20 11:10 33.907018 -117.535534 139 6095ft 58kts
13-Oct-20 11:13 33.896958 -117.596903 264 539ft 0kts
13-Oct-20 11:14 33.896958 -117.596903 264 539ft 0kts
13-Oct-20 11:15 33.896958 -117.596903 264 539ft 0kts
13-Oct-20 11:16 33.896958 -117.596903 264 539ft 0kts
13-Oct-20 11:17 33.896958 -117.596903 265 539ft 0kts
13-Oct-20 11:18 33.897066 -117.597302 353 539ft 0kts
13-Oct-20 11:19 33.897066 -117.597302 353 539ft 0kts
13-Oct-20 11:20 33.897066 -117.597302 353 539ft 0kts
13-Oct-20 11:22 33.897066 -117.597303 353 539ft 0kts
13-Oct-20 11:23 33.897707 -117.600477 275 630ft 47kts
13-Oct-20 11:24 33.903122 -117.608888 76 1751ft 41kts
13-Oct-20 11:25 33.903338 -117.592043 102 2528ft 52kts
13-Oct-20 11:26 33.905803 -117.573110 74 3378ft 61kts
13-Oct-20 11:27 33.911209 -117.554065 67 4195ft 63kts
13-Oct-20 11:28 33.916723 -117.534993 73 4988ft 61kts
13-Oct-20 11:29 33.926276 -117.518184 43 5728ft 59kts
13-Oct-20 11:30 33.941946 -117.501768 19 6116ft 109kts
13-Oct-20 11:31 33.950752 -117.522009 200 6047ft 109kts
13-Oct-20 11:32 33.920922 -117.528299 208 6043ft 113kts
13-Oct-20 11:33 33.916840 -117.550253 346 6852ft 75kts
13-Oct-20 11:34 33.937360 -117.533257 40 7664ft 105kts
13-Oct-20 11:35 33.956429 -117.509178 64 8568ft 97kts
13-Oct-20 11:36 33.940375 -117.493964 225 8972ft 108kts
13-Oct-20 11:36 33.927770 -117.519391 235 9079ft 109kts
13-Oct-20 11:38 33.912995 -117.553054 306 9114ft 111kts
13-Oct-20 11:38 33.937261 -117.549315 38 9142ft 123kts
13-Oct-20 11:40 33.966738 -117.514428 56 9094ft 126kts
13-Oct-20 11:40 33.960214 -117.485879 168 9083ft 115kts
13-Oct-20 11:41 33.938559 -117.506725 225 9155ft 103kts
13-Oct-20 11:42 33.916805 -117.530727 228 9189ft 107kts
13-Oct-20 11:43 33.896957 -117.596902 265 539ft 0kts
13-Oct-20 11:44 33.896957 -117.596902 265 539ft 0kts
13-Oct-20 11:45 33.896957 -117.596902 265 539ft 0kts
13-Oct-20 11:46 33.896957 -117.596902 265 539ft 0kts
13-Oct-20 11:47 33.896957 -117.596902 265 539ft 0kts
13-Oct-20 11:48 33.896957 -117.596902 265 539ft 0kts
13-Oct-20 11:49 33.896957 -117.596902 265 539ft 0kts
13-Oct-20 11:50 33.896957 -117.596902 265 539ft 0kts
13-Oct-20 11:51 33.896957 -117.596902 265 539ft 0kts
13-Oct-20 11:52 33.896957 -117.596902 266 539ft 0kts
13-Oct-20 11:53 33.896983 -117.597159 336 539ft 0kts
13-Oct-20 11:54 33.896983 -117.597159 336 539ft 0kts
13-Oct-20 11:55 33.897611 -117.603742 273 833ft 37kts
13-Oct-20 11:56 33.903032 -117.611044 45 1703ft 57kts
13-Oct-20 11:57 33.903504 -117.590272 77 2725ft 69kts
13-Oct-20 11:58 33.907133 -117.568020 76 3676ft 71kts
13-Oct-20 11:59 33.915103 -117.545822 77 4567ft 71kts
13-Oct-20 12:00 33.921979 -117.523443 41 5349ft 78kts
13-Oct-20 12:01 33.937524 -117.503060 44 6091ft 89kts
13-Oct-20 12:02 33.953171 -117.509310 247 6123ft 89kts
13-Oct-20 12:03 33.928543 -117.519067 203 6075ft 97kts
13-Oct-20 12:04 33.910909 -117.540640 279 6405ft 65kts
13-Oct-20 12:05 33.924726 -117.537595 19 7279ft 57kts
13-Oct-20 12:06 33.937051 -117.525048 41 8025ft 59kts
13-Oct-20 12:07 33.950879 -117.511747 34 8750ft 66kts
13-Oct-20 12:08 33.973068 -117.498337 13 9028ft 125kts
13-Oct-20 12:09 34.005822 -117.477191 27 9090ft 135kts
13-Oct-20 12:10 34.039299 -117.456248 21 9090ft 134kts
13-Oct-20 12:11 34.073314 -117.436841 22 9063ft 134kts
13-Oct-20 12:12 34.105638 -117.417242 23 9040ft 137kts
13-Oct-20 12:13 34.139447 -117.396028 23 9122ft 136kts
13-Oct-20 12:14 34.172924 -117.375049 25 9115ft 135kts
13-Oct-20 12:15 34.206432 -117.354411 22 9099ft 136kts
13-Oct-20 12:16 34.240163 -117.334630 23 9137ft 135kts
13-Oct-20 12:17 34.273507 -117.314051 23 9140ft 133kts
13-Oct-20 12:18 34.306418 -117.293555 24 9116ft 133kts
13-Oct-20 12:19 34.339026 -117.272837 24 9151ft 133kts
13-Oct-20 12:20 34.371568 -117.252207 23 9149ft 131kts
13-Oct-20 12:21 34.403822 -117.231810 23 9161ft 130kts
13-Oct-20 12:22 34.436008 -117.211746 24 9135ft 130kts
13-Oct-20 12:23 34.467517 -117.191163 24 8943ft 129kts
13-Oct-20 12:24 34.498945 -117.171588 24 8505ft 126kts
13-Oct-20 12:25 34.530524 -117.154431 20 8173ft 122kts
13-Oct-20 12:26 34.562890 -117.144000 6 8026ft 119kts
13-Oct-20 12:27 34.595709 -117.138551 2 7695ft 119kts
13-Oct-20 12:28 34.627418 -117.141619 348 7347ft 112kts
13-Oct-20 12:29 34.658286 -117.149067 347 6919ft 111kts
13-Oct-20 12:30 34.686073 -117.163812 327 6789ft 109kts
13-Oct-20 12:31 34.711887 -117.183552 330 6795ft 110kts
13-Oct-20 12:32 34.735775 -117.206389 317 6775ft 109kts
13-Oct-20 12:33 34.756744 -117.232979 310 6790ft 109kts
13-Oct-20 12:34 34.773028 -117.263904 299 6758ft 108kts
13-Oct-20 12:35 34.785587 -117.296979 288 6541ft 106kts
13-Oct-20 12:36 34.792472 -117.331722 286 6117ft 104kts
13-Oct-20 12:37 34.793839 -117.365998 246 5349ft 104kts
13-Oct-20 12:38 34.767547 -117.377643 179 4940ft 112kts
13-Oct-20 12:39 34.737348 -117.377758 181 4355ft 101kts
13-Oct-20 12:40 34.709266 -117.378953 184 4439ft 98kts
13-Oct-20 12:41 34.682227 -117.383068 186 4199ft 92kts
13-Oct-20 12:42 34.659404 -117.386387 185 3482ft 76kts
13-Oct-20 12:43 34.640790 -117.386543 183 3303ft 67kts
13-Oct-20 12:44 34.618717 -117.387034 181 3414ft 104kts
13-Oct-20 12:45 34.586503 -117.390268 211 3832ft 112kts
13-Oct-20 12:46 34.584211 -117.416369 304 4894ft 75kts
13-Oct-20 12:47 34.595881 -117.434524 296 5830ft 71kts
13-Oct-20 12:48 34.607149 -117.464714 288 6056ft 115kts
13-Oct-20 12:49 34.615904 -117.503572 287 6064ft 121kts
13-Oct-20 12:50 34.624202 -117.540719 286 6099ft 101kts
13-Oct-20 12:51 34.629236 -117.569638 280 6175ft 77kts
13-Oct-20 12:52 34.644121 -117.583406 25 6126ft 87kts
13-Oct-20 12:53 34.640719 -117.552206 116 5362ft 118kts
13-Oct-20 12:54 34.625060 -117.516016 124 4234ft 135kts
13-Oct-20 12:55 34.611316 -117.490769 122 4429ft 64kts
13-Oct-20 12:56 34.605743 -117.461466 91 4236ft 125kts
13-Oct-20 12:57 34.598992 -117.421078 99 3816ft 101kts
13-Oct-20 12:58 34.599548 -117.392775 85 3828ft 79kts
13-Oct-20 12:59 34.608709 -117.374796 43 3893ft 47kts
13-Oct-20 13:00 34.615292 -117.358504 135 3860ft 76kts
13-Oct-20 13:01 34.598639 -117.366457 215 3343ft 67kts
13-Oct-20 13:02 34.589579 -117.374050 235 2947ft 18kts
13-Oct-20 13:03 34.587938 -117.375478 230 2877ft 0kts
13-Oct-20 13:04 34.587938 -117.375478 230 2877ft 0kts
13-Oct-20 13:05 34.587938 -117.375478 230 2877ft 0kts

Navigation Log

Ident Type
Flight plan parsing failed, navigation log unavailable